createdAt,value
2019-03-29T00:01:35.797Z,9.60
2019-03-29T00:04:05.857Z,9.40
2019-03-29T00:06:37.612Z,9.40
2019-03-29T00:09:08.760Z,9.30
2019-03-29T00:11:40.284Z,9.30
2019-03-29T00:14:10.337Z,9.20
2019-03-29T00:16:41.576Z,9.20
2019-03-29T00:19:11.482Z,9.20
2019-03-29T00:21:43.284Z,9.20
2019-03-29T00:24:13.511Z,9.10
2019-03-29T00:26:43.664Z,9.10
2019-03-29T00:29:13.738Z,9.10
2019-03-29T00:31:43.740Z,9.10
2019-03-29T00:34:16.024Z,9.10
2019-03-29T00:36:46.303Z,9.10
2019-03-29T00:39:16.208Z,9.00
2019-03-29T00:41:46.269Z,8.90
2019-03-29T00:44:16.254Z,8.80
2019-03-29T00:46:46.615Z,8.80
2019-03-29T00:49:16.602Z,8.70
2019-03-29T00:51:46.761Z,8.70
2019-03-29T00:54:17.960Z,8.60
2019-03-29T00:56:48.013Z,8.50
2019-03-29T00:59:18.043Z,8.50
2019-03-29T01:01:48.013Z,8.50
2019-03-29T01:04:18.030Z,8.50
2019-03-29T01:06:48.232Z,8.40
2019-03-29T01:09:18.228Z,8.50
2019-03-29T01:11:48.193Z,8.40
2019-03-29T01:14:18.135Z,8.40
2019-03-29T01:16:48.502Z,8.50
2019-03-29T01:19:18.487Z,8.50
2019-03-29T01:21:49.062Z,8.50
2019-03-29T01:24:19.176Z,8.40
2019-03-29T01:26:49.105Z,8.40
2019-03-29T01:29:19.240Z,8.40
2019-03-29T01:31:49.149Z,8.50
2019-03-29T01:34:20.631Z,8.40
2019-03-29T01:36:50.989Z,8.40
2019-03-29T01:39:22.366Z,8.40
2019-03-29T01:41:53.088Z,8.40
2019-03-29T01:44:24.968Z,8.40
2019-03-29T01:46:55.083Z,8.40
2019-03-29T01:49:25.756Z,8.40
2019-03-29T01:51:58.890Z,8.50
2019-03-29T01:54:31.027Z,8.50
2019-03-29T01:57:00.961Z,8.50
2019-03-29T01:59:34.216Z,8.50
2019-03-29T02:02:06.150Z,8.60
2019-03-29T02:04:36.142Z,8.60
2019-03-29T02:07:06.419Z,8.60
2019-03-29T02:09:36.462Z,8.60
2019-03-29T02:12:07.073Z,8.60
2019-03-29T02:14:37.326Z,8.50
2019-03-29T02:17:07.349Z,8.50
2019-03-29T02:19:37.250Z,8.50
2019-03-29T02:22:09.023Z,8.50
2019-03-29T02:24:40.269Z,8.50
2019-03-29T02:27:10.285Z,8.40
2019-03-29T02:29:41.611Z,8.40
2019-03-29T02:32:12.845Z,8.50
2019-03-29T02:34:43.891Z,8.40
2019-03-29T02:37:14.487Z,8.50
2019-03-29T02:39:45.689Z,8.40
2019-03-29T02:42:15.635Z,8.40
2019-03-29T02:44:45.603Z,8.40
2019-03-29T02:47:16.307Z,8.40
2019-03-29T02:49:46.291Z,8.40
2019-03-29T02:52:16.640Z,8.30
2019-03-29T02:54:46.629Z,8.30
2019-03-29T02:57:17.616Z,8.30
2019-03-29T02:59:49.387Z,8.20
2019-03-29T03:02:19.439Z,8.20
2019-03-29T03:04:49.379Z,8.20
2019-03-29T03:07:19.490Z,8.20
2019-03-29T03:09:49.451Z,8.20
2019-03-29T03:12:19.468Z,8.20
2019-03-29T03:14:49.749Z,8.20
2019-03-29T03:17:21.090Z,8.20
2019-03-29T03:19:51.177Z,8.20
2019-03-29T03:22:22.661Z,8.20
2019-03-29T03:24:54.085Z,8.20
2019-03-29T03:27:24.109Z,8.20
2019-03-29T03:29:54.158Z,8.20
2019-03-29T03:32:24.180Z,8.30
2019-03-29T03:34:54.349Z,8.30
2019-03-29T03:37:24.585Z,8.30
2019-03-29T03:39:54.501Z,8.30
2019-03-29T03:42:24.692Z,8.40
2019-03-29T03:44:54.856Z,8.40
2019-03-29T03:47:24.873Z,8.40
2019-03-29T03:49:54.970Z,8.40
2019-03-29T03:52:26.834Z,8.50
2019-03-29T03:54:58.784Z,8.50
2019-03-29T03:57:29.094Z,8.50
2019-03-29T04:00:00.076Z,8.60
2019-03-29T04:02:30.304Z,8.50
2019-03-29T04:05:00.702Z,8.50
2019-03-29T04:07:32.291Z,8.50
2019-03-29T04:10:02.278Z,8.50
2019-03-29T04:12:32.305Z,8.50
2019-03-29T04:15:02.401Z,8.50
2019-03-29T04:17:32.720Z,8.50
2019-03-29T04:20:04.027Z,8.60
2019-03-29T04:22:34.100Z,8.60
2019-03-29T04:25:04.243Z,8.70
2019-03-29T04:27:35.479Z,8.80
2019-03-29T04:30:06.070Z,8.90
2019-03-29T04:32:37.842Z,9.00
2019-03-29T04:35:07.917Z,9.00
2019-03-29T04:37:39.846Z,9.00
2019-03-29T04:40:11.628Z,9.10
2019-03-29T04:42:43.595Z,9.00
2019-03-29T04:45:13.691Z,9.00
2019-03-29T04:47:43.728Z,8.90
2019-03-29T04:50:13.875Z,8.80
2019-03-29T04:52:43.832Z,8.80
2019-03-29T04:55:14.345Z,8.70
2019-03-29T04:57:46.066Z,8.60
2019-03-29T05:00:16.494Z,8.50
2019-03-29T05:02:47.903Z,8.50
2019-03-29T05:05:17.937Z,8.40
2019-03-29T05:07:49.388Z,8.40
2019-03-29T05:10:21.412Z,8.30
2019-03-29T05:12:52.912Z,8.30
2019-03-29T05:15:22.983Z,8.30
2019-03-29T05:17:54.891Z,8.20
2019-03-29T05:20:24.990Z,8.20
2019-03-29T05:22:54.884Z,8.10
2019-03-29T05:25:26.647Z,8.00
2019-03-29T05:27:57.958Z,8.00
2019-03-29T05:30:29.303Z,7.90
2019-03-29T05:32:59.236Z,7.80
2019-03-29T05:35:29.219Z,7.80
2019-03-29T05:37:59.201Z,7.80
2019-03-29T05:40:35.101Z,7.70
2019-03-29T05:43:02.112Z,7.70
2019-03-29T05:45:33.497Z,7.70
2019-03-29T05:48:03.448Z,7.60
2019-03-29T05:50:36.665Z,7.60
2019-03-29T05:53:05.443Z,7.60
2019-03-29T05:55:35.392Z,7.50
2019-03-29T05:58:05.423Z,7.40
2019-03-29T06:00:37.559Z,7.40
2019-03-29T06:03:10.024Z,7.30
2019-03-29T06:05:39.615Z,7.30
2019-03-29T06:08:09.532Z,7.30
2019-03-29T06:10:48.823Z,7.20
2019-03-29T06:13:11.581Z,7.20
2019-03-29T06:15:41.457Z,7.30
2019-03-29T06:18:14.369Z,7.30
2019-03-29T06:20:45.568Z,7.30
2019-03-29T06:23:17.401Z,7.40
2019-03-29T06:25:47.536Z,7.40
2019-03-29T06:28:17.790Z,7.50
2019-03-29T06:30:48.613Z,7.50
2019-03-29T06:33:18.609Z,7.50
2019-03-29T06:35:50.925Z,7.60
2019-03-29T06:38:23.155Z,7.70
2019-03-29T06:41:02.981Z,7.80
2019-03-29T06:43:26.390Z,7.80
2019-03-29T06:45:56.450Z,7.90
2019-03-29T06:48:26.499Z,8.10
2019-03-29T06:50:58.175Z,8.20
2019-03-29T06:53:28.118Z,8.30
2019-03-29T06:55:59.456Z,8.40
2019-03-29T06:58:30.832Z,8.50
2019-03-29T07:01:01.023Z,8.70
2019-03-29T07:03:31.517Z,8.80
2019-03-29T07:06:01.501Z,9.00
2019-03-29T07:08:31.739Z,9.00
2019-03-29T07:11:16.231Z,9.10
2019-03-29T07:13:34.604Z,9.30
2019-03-29T07:16:04.525Z,9.40
2019-03-29T07:18:34.464Z,9.60
2019-03-29T07:21:04.953Z,9.70
2019-03-29T07:23:34.950Z,9.80
2019-03-29T07:26:06.979Z,9.90
2019-03-29T07:28:38.733Z,10.10
2019-03-29T07:31:27.510Z,10.20
2019-03-29T07:33:57.557Z,10.30
2019-03-29T07:36:27.488Z,10.50
2019-03-29T07:38:58.937Z,10.60
2019-03-29T07:41:32.174Z,10.80
2019-03-29T07:44:02.186Z,10.90
2019-03-29T07:46:33.497Z,10.90
2019-03-29T07:49:03.651Z,11.10
2019-03-29T07:51:33.583Z,11.20
2019-03-29T07:54:05.082Z,11.20
2019-03-29T07:56:35.309Z,11.30
2019-03-29T07:59:05.336Z,11.40
2019-03-29T08:01:36.969Z,11.60
2019-03-29T08:04:10.593Z,11.60
2019-03-29T08:06:40.836Z,11.70
2019-03-29T08:09:21.789Z,11.90
2019-03-29T08:11:46.442Z,11.90
2019-03-29T08:14:15.054Z,12.00
2019-03-29T08:16:45.199Z,12.10
2019-03-29T08:19:15.228Z,12.30
2019-03-29T08:21:45.281Z,12.40
2019-03-29T08:24:15.220Z,12.40
2019-03-29T08:26:45.304Z,12.50
2019-03-29T08:29:15.388Z,12.60
2019-03-29T08:31:49.281Z,12.60
2019-03-29T08:34:19.322Z,12.80
2019-03-29T08:36:49.265Z,12.80
2019-03-29T08:39:27.753Z,12.90
2019-03-29T08:42:00.037Z,13.00
2019-03-29T08:44:25.826Z,13.10
2019-03-29T08:46:55.834Z,13.10
2019-03-29T08:49:26.044Z,13.20
2019-03-29T08:51:57.538Z,13.30
2019-03-29T08:54:27.830Z,13.20
2019-03-29T08:56:58.972Z,13.40
2019-03-29T08:59:30.793Z,13.40
2019-03-29T09:02:02.218Z,13.50
2019-03-29T09:04:34.011Z,13.60
2019-03-29T09:07:03.943Z,13.70
2019-03-29T09:09:35.999Z,13.70
2019-03-29T09:12:14.187Z,13.80
2019-03-29T09:14:37.658Z,13.70
2019-03-29T09:17:09.775Z,13.80
2019-03-29T09:19:41.129Z,13.90
2019-03-29T09:22:11.106Z,13.90
2019-03-29T09:24:43.016Z,14.00
2019-03-29T09:27:13.096Z,14.00
2019-03-29T09:29:43.176Z,14.10
2019-03-29T09:32:14.133Z,14.20
2019-03-29T09:34:44.167Z,14.30
2019-03-29T09:37:14.286Z,14.30
2019-03-29T09:39:44.241Z,14.30
2019-03-29T09:42:28.160Z,14.40
2019-03-29T09:44:47.796Z,14.40
2019-03-29T09:47:17.718Z,14.40
2019-03-29T09:49:47.646Z,14.50
2019-03-29T09:52:17.994Z,14.40
2019-03-29T09:54:48.335Z,14.40
2019-03-29T09:57:19.978Z,14.50
2019-03-29T09:59:49.972Z,14.50
2019-03-29T10:02:19.961Z,14.50
2019-03-29T10:04:49.987Z,14.50
2019-03-29T10:07:20.752Z,14.50
2019-03-29T10:09:52.473Z,14.50
2019-03-29T10:12:22.585Z,14.50
2019-03-29T10:14:53.986Z,14.50
2019-03-29T10:17:24.044Z,14.50
2019-03-29T10:19:55.885Z,14.50
2019-03-29T10:22:26.017Z,14.50
2019-03-29T10:24:57.757Z,14.60
2019-03-29T10:27:27.693Z,14.50
2019-03-29T10:29:57.741Z,14.50
2019-03-29T10:32:27.731Z,14.50
2019-03-29T10:34:57.732Z,14.50
2019-03-29T10:37:27.903Z,14.50
2019-03-29T10:39:59.640Z,14.50
2019-03-29T10:42:29.674Z,14.50
2019-03-29T10:44:59.736Z,14.40
2019-03-29T10:47:43.267Z,14.50
2019-03-29T10:50:01.425Z,14.40
2019-03-29T10:52:31.892Z,14.40
2019-03-29T10:55:01.965Z,14.50
2019-03-29T10:57:31.958Z,14.50
2019-03-29T11:00:02.036Z,14.50
2019-03-29T11:02:32.054Z,14.60
2019-03-29T11:05:02.247Z,14.50
2019-03-29T11:07:32.476Z,14.50
2019-03-29T11:10:03.198Z,14.60
2019-03-29T11:12:33.184Z,14.60
2019-03-29T11:15:06.468Z,14.60
2019-03-29T11:17:35.134Z,14.70
2019-03-29T11:20:05.086Z,14.70
2019-03-29T11:22:35.037Z,14.70
2019-03-29T11:25:05.034Z,14.80
2019-03-29T11:27:35.043Z,14.80
2019-03-29T11:30:06.454Z,14.80
2019-03-29T11:32:36.460Z,14.80
2019-03-29T11:35:06.923Z,14.90
2019-03-29T11:37:36.979Z,14.90
2019-03-29T11:40:07.219Z,15.00
2019-03-29T11:42:37.381Z,15.00
2019-03-29T11:45:07.883Z,15.00
2019-03-29T11:47:37.859Z,15.00
2019-03-29T11:50:08.080Z,15.00
2019-03-29T11:52:38.078Z,15.00
2019-03-29T11:55:08.152Z,15.00
2019-03-29T11:57:39.362Z,15.10
2019-03-29T12:00:10.554Z,15.00
2019-03-29T12:02:40.566Z,15.10
2019-03-29T12:05:10.622Z,15.10
2019-03-29T12:07:40.639Z,15.10
2019-03-29T12:10:10.658Z,15.10
2019-03-29T12:12:40.925Z,15.20
2019-03-29T12:15:12.427Z,15.10
2019-03-29T12:17:43.650Z,15.20
2019-03-29T12:20:13.714Z,15.20
2019-03-29T12:22:44.987Z,15.20
2019-03-29T12:25:15.049Z,15.20
2019-03-29T12:27:46.893Z,15.30
2019-03-29T12:30:30.698Z,15.30
2019-03-29T12:32:48.742Z,15.30
2019-03-29T12:35:18.834Z,15.40
2019-03-29T12:37:48.890Z,15.40
2019-03-29T12:40:20.706Z,15.30
2019-03-29T12:42:50.709Z,15.40
2019-03-29T12:45:20.792Z,15.40
2019-03-29T12:47:50.745Z,15.40
2019-03-29T12:50:22.503Z,15.50
2019-03-29T12:52:52.551Z,15.50
2019-03-29T12:55:24.043Z,15.50
2019-03-29T12:57:54.030Z,15.50
2019-03-29T13:00:24.393Z,15.50
2019-03-29T13:02:54.369Z,15.60
2019-03-29T13:05:24.301Z,15.60
2019-03-29T13:07:54.328Z,15.60
2019-03-29T13:10:24.999Z,15.60
2019-03-29T13:12:55.136Z,15.70
2019-03-29T13:15:25.934Z,15.70
2019-03-29T13:17:57.168Z,15.70
2019-03-29T13:20:27.429Z,15.80
2019-03-29T13:22:57.351Z,15.80
2019-03-29T13:25:27.251Z,15.80
2019-03-29T13:27:59.443Z,15.80
2019-03-29T13:30:29.320Z,15.80
2019-03-29T13:33:01.170Z,15.80
2019-03-29T13:35:31.284Z,15.90
2019-03-29T13:38:01.264Z,15.80
2019-03-29T13:40:31.259Z,15.90
2019-03-29T13:43:02.388Z,15.90
2019-03-29T13:45:32.440Z,15.90
2019-03-29T13:48:06.960Z,16.00
2019-03-29T13:50:38.752Z,16.00
2019-03-29T13:53:08.982Z,16.00
2019-03-29T13:55:38.938Z,16.00
2019-03-29T13:58:09.205Z,16.00
2019-03-29T14:00:39.212Z,16.00
2019-03-29T14:03:09.165Z,16.00
2019-03-29T14:05:41.141Z,16.10
2019-03-29T14:08:11.172Z,16.10
2019-03-29T14:10:41.187Z,16.10
2019-03-29T14:13:12.733Z,16.10
2019-03-29T14:15:43.024Z,16.10
2019-03-29T14:18:13.290Z,16.10
2019-03-29T14:20:44.522Z,16.10
2019-03-29T14:23:16.133Z,16.10
2019-03-29T14:25:46.122Z,16.10
2019-03-29T14:28:16.152Z,16.20
2019-03-29T14:30:46.138Z,16.20
2019-03-29T14:33:16.421Z,16.20
2019-03-29T14:35:46.762Z,16.20
2019-03-29T14:38:16.945Z,16.20
2019-03-29T14:40:47.002Z,16.20
2019-03-29T14:43:17.011Z,16.20
2019-03-29T14:45:47.013Z,16.20
2019-03-29T14:48:17.031Z,16.10
2019-03-29T14:50:47.102Z,16.10
2019-03-29T14:53:17.154Z,16.20
2019-03-29T14:55:48.451Z,16.10
2019-03-29T14:58:18.477Z,16.10
2019-03-29T15:00:49.063Z,16.10
2019-03-29T15:03:19.309Z,16.10
2019-03-29T15:05:49.438Z,16.20
2019-03-29T15:08:19.361Z,16.10
2019-03-29T15:10:49.324Z,16.10
2019-03-29T15:13:19.458Z,16.10
2019-03-29T15:15:49.497Z,16.10
2019-03-29T15:18:38.254Z,16.10
2019-03-29T15:21:19.141Z,16.10
2019-03-29T15:23:49.391Z,16.10
2019-03-29T15:26:20.866Z,16.10
2019-03-29T15:29:10.370Z,16.10
2019-03-29T15:31:42.108Z,16.00
2019-03-29T15:34:17.989Z,16.00
2019-03-29T15:36:49.792Z,16.00
2019-03-29T15:39:20.998Z,15.90
2019-03-29T15:41:54.322Z,16.00
2019-03-29T15:44:24.915Z,15.90
2019-03-29T15:46:55.013Z,15.80
2019-03-29T15:49:26.933Z,15.80
2019-03-29T15:51:57.023Z,15.70
2019-03-29T15:54:26.984Z,15.70
2019-03-29T15:56:58.155Z,15.60
2019-03-29T15:59:28.744Z,15.60
2019-03-29T16:01:58.690Z,15.50
2019-03-29T16:04:28.712Z,15.50
2019-03-29T16:07:00.679Z,15.40
2019-03-29T16:09:30.674Z,15.30
2019-03-29T16:12:00.788Z,15.30
2019-03-29T16:14:31.067Z,15.30
2019-03-29T16:17:00.945Z,15.20
2019-03-29T16:19:31.044Z,15.10
2019-03-29T16:22:05.867Z,15.10
2019-03-29T16:24:34.555Z,15.10
2019-03-29T16:27:04.585Z,15.00
2019-03-29T16:29:34.910Z,14.90
2019-03-29T16:32:06.481Z,14.90
2019-03-29T16:34:36.404Z,14.80
2019-03-29T16:37:06.429Z,14.80
2019-03-29T16:39:36.504Z,14.80
2019-03-29T16:42:06.554Z,14.70
2019-03-29T16:44:36.885Z,14.70
2019-03-29T16:47:06.778Z,14.70
2019-03-29T16:49:36.805Z,14.60
2019-03-29T16:52:06.760Z,14.60
2019-03-29T16:54:36.849Z,14.60
2019-03-29T16:57:06.755Z,14.50
2019-03-29T16:59:36.677Z,14.50
2019-03-29T17:02:06.737Z,14.40
2019-03-29T17:04:36.742Z,14.40
2019-03-29T17:07:07.002Z,14.30
2019-03-29T17:09:37.152Z,14.30
2019-03-29T17:12:08.399Z,14.30
2019-03-29T17:14:39.610Z,14.20
2019-03-29T17:17:09.693Z,14.20
2019-03-29T17:19:39.829Z,14.10
2019-03-29T17:22:11.383Z,14.10
2019-03-29T17:24:56.349Z,14.10
2019-03-29T17:27:16.752Z,14.00
2019-03-29T17:29:46.871Z,14.00
2019-03-29T17:32:21.414Z,14.00
2019-03-29T17:34:51.716Z,14.00
2019-03-29T17:37:21.801Z,13.90
2019-03-29T17:39:51.835Z,13.90
2019-03-29T17:42:21.995Z,13.90
2019-03-29T17:44:51.878Z,13.90
2019-03-29T17:47:21.772Z,13.80
2019-03-29T17:49:51.950Z,13.80
2019-03-29T17:52:21.857Z,13.70
2019-03-29T17:54:51.787Z,13.70
2019-03-29T17:57:22.145Z,13.70
2019-03-29T17:59:52.040Z,13.70
2019-03-29T18:02:21.989Z,13.60
2019-03-29T18:04:55.367Z,13.60
2019-03-29T18:07:25.366Z,13.50
2019-03-29T18:09:55.307Z,13.50
2019-03-29T18:12:25.874Z,13.50
2019-03-29T18:14:55.844Z,13.50
2019-03-29T18:17:44.573Z,13.40
2019-03-29T18:20:15.049Z,13.40
2019-03-29T18:22:47.100Z,13.30
2019-03-29T18:25:18.842Z,13.30
2019-03-29T18:27:48.829Z,13.20
2019-03-29T18:30:23.793Z,13.20
2019-03-29T18:32:55.747Z,13.20
2019-03-29T18:35:26.880Z,13.20
2019-03-29T18:37:56.842Z,13.10
2019-03-29T18:40:27.705Z,13.10
2019-03-29T18:42:57.887Z,13.10
2019-03-29T18:45:27.977Z,13.10
2019-03-29T18:47:57.922Z,13.00
2019-03-29T18:50:29.209Z,13.00
2019-03-29T18:53:00.355Z,13.00
2019-03-29T18:55:30.554Z,13.00
2019-03-29T18:58:00.572Z,13.00
2019-03-29T19:00:33.315Z,12.90
2019-03-29T19:03:03.463Z,12.90
2019-03-29T19:05:33.886Z,12.90
2019-03-29T19:08:05.451Z,12.90
2019-03-29T19:10:36.971Z,12.80
2019-03-29T19:13:06.881Z,12.90
2019-03-29T19:15:36.819Z,12.90
2019-03-29T19:18:06.825Z,12.90
2019-03-29T19:20:36.896Z,12.90
2019-03-29T19:23:07.041Z,12.80
2019-03-29T19:25:36.999Z,12.90
2019-03-29T19:28:07.185Z,12.80
2019-03-29T19:30:37.119Z,12.80
2019-03-29T19:33:07.400Z,12.80
2019-03-29T19:35:38.758Z,12.70
2019-03-29T19:38:10.218Z,12.80
2019-03-29T19:40:40.251Z,12.70
2019-03-29T19:43:10.184Z,12.80
2019-03-29T19:45:41.373Z,12.70
2019-03-29T19:48:11.558Z,12.80
2019-03-29T19:50:41.667Z,12.70
2019-03-29T19:53:11.621Z,12.70
2019-03-29T19:55:41.861Z,12.60
2019-03-29T19:58:13.040Z,12.60
2019-03-29T20:00:43.863Z,12.60
2019-03-29T20:03:14.211Z,12.60
2019-03-29T20:05:44.616Z,12.60
2019-03-29T20:08:14.550Z,12.60
2019-03-29T20:10:44.598Z,12.50
2019-03-29T20:13:14.580Z,12.50
2019-03-29T20:15:44.525Z,12.50
2019-03-29T20:18:14.566Z,12.40
2019-03-29T20:20:44.561Z,12.40
2019-03-29T20:23:14.513Z,12.40
2019-03-29T20:25:44.445Z,12.40
2019-03-29T20:28:14.636Z,12.30
2019-03-29T20:30:45.852Z,12.30
2019-03-29T20:33:15.954Z,12.40
2019-03-29T20:35:47.336Z,12.40
2019-03-29T20:38:17.253Z,12.40
2019-03-29T20:40:47.458Z,12.40
2019-03-29T20:43:17.450Z,12.40
2019-03-29T20:45:47.508Z,12.40
2019-03-29T20:48:19.433Z,12.40
2019-03-29T20:50:49.415Z,12.40
2019-03-29T20:53:20.546Z,12.30
2019-03-29T20:55:52.773Z,12.30
2019-03-29T20:58:22.779Z,12.20
2019-03-29T21:00:52.727Z,12.20
2019-03-29T21:03:22.706Z,12.20
2019-03-29T21:05:52.630Z,12.20
2019-03-29T21:08:22.650Z,12.10
2019-03-29T21:10:56.283Z,12.10
2019-03-29T21:13:26.019Z,12.10
2019-03-29T21:15:55.941Z,12.10
2019-03-29T21:18:25.918Z,12.10
2019-03-29T21:20:57.783Z,12.10
2019-03-29T21:23:27.789Z,12.10
2019-03-29T21:25:57.949Z,12.10
2019-03-29T21:28:28.347Z,12.10
2019-03-29T21:31:00.144Z,12.10
2019-03-29T21:33:30.167Z,12.10
2019-03-29T21:36:00.117Z,12.10
2019-03-29T21:38:30.084Z,12.10
2019-03-29T21:41:00.260Z,12.10
2019-03-29T21:43:30.271Z,12.10
2019-03-29T21:46:00.260Z,12.10
2019-03-29T21:48:30.230Z,12.10
2019-03-29T21:51:00.250Z,12.10
2019-03-29T21:53:31.687Z,12.10
2019-03-29T21:56:01.783Z,12.10
2019-03-29T21:58:32.972Z,12.10
2019-03-29T22:01:02.991Z,12.10
2019-03-29T22:03:32.920Z,12.00
2019-03-29T22:06:02.848Z,12.00
2019-03-29T22:08:34.630Z,12.00
2019-03-29T22:11:06.714Z,12.00
2019-03-29T22:13:37.991Z,11.90
2019-03-29T22:16:07.893Z,11.90
2019-03-29T22:18:38.420Z,11.90
2019-03-29T22:21:08.671Z,11.90
2019-03-29T22:23:38.674Z,11.90
2019-03-29T22:26:08.707Z,11.80
2019-03-29T22:28:39.231Z,11.80
2019-03-29T22:31:09.127Z,11.80
2019-03-29T22:33:40.421Z,11.80
2019-03-29T22:36:11.438Z,11.70
2019-03-29T22:38:42.637Z,11.70
2019-03-29T22:41:14.180Z,11.60
2019-03-29T22:43:44.205Z,11.60
2019-03-29T22:46:14.187Z,11.50
2019-03-29T22:48:52.246Z,11.50
2019-03-29T22:51:20.411Z,11.40
2019-03-29T22:53:50.427Z,11.30
2019-03-29T22:56:20.507Z,11.30
2019-03-29T22:58:51.879Z,11.20
2019-03-29T23:01:22.057Z,11.20
2019-03-29T23:03:51.999Z,11.10
2019-03-29T23:06:22.010Z,11.00
2019-03-29T23:08:52.025Z,11.00
2019-03-29T23:11:21.915Z,11.00
2019-03-29T23:13:52.072Z,10.90
2019-03-29T23:16:22.088Z,10.90
2019-03-29T23:19:05.509Z,10.80
2019-03-29T23:21:24.121Z,10.80
2019-03-29T23:23:54.146Z,10.80
2019-03-29T23:26:25.933Z,10.70
2019-03-29T23:28:56.201Z,10.70
2019-03-29T23:31:26.123Z,10.70
2019-03-29T23:33:56.267Z,10.70
2019-03-29T23:36:26.669Z,10.70
2019-03-29T23:38:56.672Z,10.70
2019-03-29T23:41:28.074Z,10.70
2019-03-29T23:43:58.116Z,10.60
2019-03-29T23:46:28.091Z,10.60
2019-03-29T23:48:58.014Z,10.60
2019-03-29T23:51:28.276Z,10.60
2019-03-29T23:53:58.233Z,10.60
2019-03-29T23:56:29.670Z,10.60
2019-03-29T23:58:59.825Z,10.60
